createdAt,value
2023-05-10T00:01:44.585Z,97297.25
2023-05-10T00:04:47.681Z,97299.81
2023-05-10T00:07:52.160Z,97300.16
2023-05-10T00:10:55.447Z,97305.22
2023-05-10T00:13:58.738Z,97312.41
2023-05-10T00:17:02.122Z,97255.81
2023-05-10T00:20:06.149Z,97316.38
2023-05-10T00:23:10.724Z,97318.06
2023-05-10T00:26:14.154Z,97321.88
2023-05-10T00:29:21.511Z,97321.28
2023-05-10T00:32:25.161Z,97323.25
2023-05-10T00:35:28.365Z,97324.53
2023-05-10T00:38:32.998Z,97316.28
2023-05-10T00:41:36.399Z,97319.75
2023-05-10T00:44:41.744Z,97320.94
2023-05-10T00:47:45.162Z,97317.38
2023-05-10T00:50:48.920Z,97324.03
2023-05-10T00:53:53.817Z,97323.91
2023-05-10T00:56:57.949Z,97330.88
2023-05-10T01:00:01.673Z,97334.78
2023-05-10T01:03:05.491Z,97344.66
2023-05-10T01:06:10.872Z,97346.22
2023-05-10T01:09:15.426Z,97347.59
2023-05-10T01:12:18.702Z,97348.63
2023-05-10T01:15:23.194Z,97349.19
2023-05-10T01:18:27.761Z,97351.56
2023-05-10T01:21:38.329Z,97344.75
2023-05-10T01:25:16.496Z,97346.34
2023-05-10T01:28:48.491Z,97352.63
2023-05-10T01:32:23.172Z,97343.19
2023-05-10T01:35:34.563Z,97352.03
2023-05-10T01:38:45.197Z,97352.50
2023-05-10T01:41:53.187Z,97352.16
2023-05-10T01:45:04.311Z,97352.84
2023-05-10T01:48:11.891Z,97350.75
2023-05-10T01:51:18.870Z,97350.03
2023-05-10T01:54:24.473Z,97356.28
2023-05-10T01:57:33.855Z,97353.13
2023-05-10T02:00:39.333Z,97360.13
2023-05-10T02:03:45.464Z,97341.97
2023-05-10T02:06:49.963Z,97363.97
2023-05-10T02:09:53.392Z,97358.06
2023-05-10T02:13:00.840Z,97363.22
2023-05-10T02:16:07.084Z,97355.75
2023-05-10T02:19:13.397Z,97360.56
2023-05-10T02:22:18.206Z,97357.59
2023-05-10T02:25:23.421Z,97334.25
2023-05-10T02:28:28.356Z,97351.72
2023-05-10T02:31:34.070Z,97368.47
2023-05-10T02:34:39.578Z,97356.69
2023-05-10T02:37:45.672Z,97365.13
2023-05-10T02:40:50.198Z,97360.34
2023-05-10T02:43:57.906Z,97357.88
2023-05-10T02:47:01.140Z,97357.97
2023-05-10T02:50:09.218Z,97364.63
2023-05-10T02:53:16.952Z,97368.75
2023-05-10T02:56:27.008Z,97362.09
2023-05-10T02:59:30.341Z,97367.41
2023-05-10T03:02:33.904Z,97358.38
2023-05-10T03:05:38.974Z,97362.72
2023-05-10T03:08:42.202Z,97360.59
2023-05-10T03:11:57.415Z,97361.78
2023-05-10T03:15:09.560Z,97365.78
2023-05-10T03:18:19.119Z,97362.50
2023-05-10T03:21:27.865Z,97372.03
2023-05-10T03:24:32.401Z,97371.22
2023-05-10T03:27:40.860Z,97377.25
2023-05-10T03:34:44.837Z,97363.13
2023-05-10T03:37:48.544Z,97389.34
2023-05-10T03:40:51.828Z,97394.31
2023-05-10T03:43:54.964Z,97389.75
2023-05-10T03:46:58.501Z,97397.13
2023-05-10T03:50:03.983Z,97397.75
2023-05-10T03:53:08.397Z,97406.91
2023-05-10T03:56:11.569Z,97411.50
2023-05-10T03:59:14.817Z,97411.81
2023-05-10T04:02:17.997Z,97418.84
2023-05-10T04:05:23.381Z,97419.28
2023-05-10T04:08:29.454Z,97418.47
2023-05-10T04:11:33.709Z,97425.31
2023-05-10T04:14:38.159Z,97423.03
2023-05-10T04:17:41.328Z,97430.84
2023-05-10T04:20:45.821Z,97428.66
2023-05-10T04:23:48.930Z,97430.91
2023-05-10T04:26:52.263Z,97435.28
2023-05-10T04:29:55.347Z,97433.44
2023-05-10T04:32:59.409Z,97439.50
2023-05-10T04:36:04.540Z,97439.78
2023-05-10T04:39:07.992Z,97444.03
2023-05-10T04:42:12.326Z,97444.03
2023-05-10T04:45:16.604Z,97445.75
2023-05-10T04:48:19.764Z,97454.25
2023-05-10T04:51:24.346Z,97456.53
2023-05-10T04:54:27.511Z,97458.41
2023-05-10T04:57:30.698Z,97466.44
2023-05-10T05:00:35.551Z,97462.56
2023-05-10T05:03:38.971Z,97464.66
2023-05-10T05:06:43.514Z,97470.38
2023-05-10T05:09:46.573Z,97483.78
2023-05-10T05:12:49.981Z,97446.41
2023-05-10T05:15:53.159Z,97477.84
2023-05-10T05:18:56.821Z,97469.31
2023-05-10T05:22:01.305Z,97471.41
2023-05-10T05:25:04.921Z,97482.88
2023-05-10T05:28:08.521Z,97474.19
2023-05-10T05:31:11.735Z,97477.31
2023-05-10T05:34:14.919Z,97473.78
2023-05-10T05:37:21.932Z,97472.94
2023-05-10T05:40:25.256Z,97472.63
2023-05-10T05:43:28.471Z,97465.16
2023-05-10T05:46:31.678Z,97480.09
2023-05-10T05:49:34.944Z,97479.38
2023-05-10T05:52:39.587Z,97482.09
2023-05-10T05:55:42.701Z,97491.41
2023-05-10T05:58:46.420Z,97494.31
2023-05-10T06:01:49.926Z,97493.19
2023-05-10T06:04:53.219Z,97502.31
2023-05-10T06:07:57.709Z,97504.72
2023-05-10T06:11:01.050Z,97516.88
2023-05-10T06:14:10.991Z,97511.78
2023-05-10T06:17:14.344Z,97511.19
2023-05-10T06:20:18.009Z,97519.44
2023-05-10T06:23:23.213Z,97521.09
2023-05-10T06:26:26.509Z,97527.16
2023-05-10T06:29:29.786Z,97528.06
2023-05-10T06:32:32.963Z,97530.91
2023-05-10T06:35:36.333Z,97526.13
2023-05-10T06:38:41.275Z,97532.19
2023-05-10T06:41:44.420Z,97528.19
2023-05-10T06:44:47.520Z,97535.63
2023-05-10T06:47:50.778Z,97535.94
2023-05-10T06:50:54.038Z,97517.25
2023-05-10T06:53:58.558Z,97526.13
2023-05-10T06:57:03.603Z,97526.69
2023-05-10T07:00:10.582Z,97523.63
2023-05-10T07:03:14.087Z,97537.50
2023-05-10T07:06:29.291Z,97528.97
2023-05-10T07:09:37.404Z,97521.31
2023-05-10T07:12:40.765Z,97520.72
2023-05-10T07:15:43.903Z,97520.09
2023-05-10T07:18:47.067Z,97531.56
2023-05-10T07:21:51.730Z,97537.16
2023-05-10T07:24:56.780Z,97538.41
2023-05-10T07:27:59.905Z,97539.44
2023-05-10T07:31:03.122Z,97543.44
2023-05-10T07:34:06.358Z,97548.84
2023-05-10T07:37:09.624Z,97539.88
2023-05-10T07:40:14.348Z,97553.44
2023-05-10T07:43:17.509Z,97544.94
2023-05-10T07:46:21.327Z,97554.47
2023-05-10T07:49:25.519Z,97561.44
2023-05-10T07:52:28.624Z,97560.94
2023-05-10T07:55:35.677Z,97570.41
2023-05-10T07:58:38.860Z,97569.88
2023-05-10T08:01:42.312Z,97565.53
2023-05-10T08:04:45.587Z,97569.69
2023-05-10T08:07:48.903Z,97568.03
2023-05-10T08:10:53.554Z,97563.53
2023-05-10T08:13:56.711Z,97562.88
2023-05-10T08:16:59.906Z,97568.88
2023-05-10T08:20:03.415Z,97553.63
2023-05-10T08:23:06.579Z,97558.84
2023-05-10T08:26:11.136Z,97567.88
2023-05-10T08:29:17.224Z,97565.72
2023-05-10T08:32:20.500Z,97565.28
2023-05-10T08:35:23.662Z,97568.16
2023-05-10T08:38:27.117Z,97558.78
2023-05-10T08:41:34.661Z,97558.09
2023-05-10T08:44:38.988Z,97569.78
2023-05-10T08:47:43.070Z,97563.88
2023-05-10T08:50:47.037Z,97569.94
2023-05-10T08:53:50.557Z,97573.72
2023-05-10T08:56:55.182Z,97577.63
2023-05-10T08:59:58.282Z,97590.63
2023-05-10T09:03:02.443Z,97606.91
2023-05-10T09:06:06.023Z,97614.56
2023-05-10T09:09:09.695Z,97624.69
2023-05-10T09:12:16.554Z,97635.56
2023-05-10T09:15:20.953Z,97613.59
2023-05-10T09:18:25.565Z,97640.22
2023-05-10T09:21:30.588Z,97633.63
2023-05-10T09:24:33.886Z,97628.31
2023-05-10T09:27:39.061Z,97598.63
2023-05-10T09:34:42.141Z,97595.88
2023-05-10T09:37:47.090Z,97599.03
2023-05-10T09:40:56.321Z,97590.53
2023-05-10T09:43:59.667Z,97593.84
2023-05-10T09:47:03.888Z,97581.44
2023-05-10T09:50:09.460Z,97586.88
2023-05-10T09:53:16.776Z,97588.06
2023-05-10T09:56:35.826Z,97571.91
2023-05-10T09:59:44.718Z,97577.72
2023-05-10T10:02:50.001Z,97573.97
2023-05-10T10:05:56.857Z,97579.06
2023-05-10T10:09:00.117Z,97571.84
2023-05-10T10:12:04.755Z,97585.03
2023-05-10T10:15:09.911Z,97572.25
2023-05-10T10:18:16.173Z,97571.06
2023-05-10T10:21:21.982Z,97542.97
2023-05-10T10:24:25.096Z,97564.81
2023-05-10T10:27:37.664Z,97568.88
2023-05-10T10:30:44.654Z,97564.00
2023-05-10T10:33:58.786Z,97566.53
2023-05-10T10:37:07.963Z,97562.84
2023-05-10T10:40:25.686Z,97565.81
2023-05-10T10:43:29.978Z,97573.78
2023-05-10T10:46:33.292Z,97565.31
2023-05-10T10:49:44.706Z,97578.44
2023-05-10T10:52:50.495Z,97587.00
2023-05-10T10:56:07.453Z,97589.19
2023-05-10T10:59:12.630Z,97585.09
2023-05-10T11:02:45.217Z,97576.75
2023-05-10T11:05:49.786Z,97580.09
2023-05-10T11:08:54.667Z,97572.91
2023-05-10T11:11:59.053Z,97569.03
2023-05-10T11:15:02.180Z,97566.66
2023-05-10T11:18:20.231Z,97559.41
2023-05-10T11:21:24.033Z,97575.28
2023-05-10T11:24:30.390Z,97551.75
2023-05-10T11:27:34.065Z,97572.59
2023-05-10T11:30:38.137Z,97566.06
2023-05-10T11:33:44.968Z,97575.41
2023-05-10T11:36:54.718Z,97581.13
2023-05-10T11:39:59.291Z,97574.81
2023-05-10T11:43:02.780Z,97581.22
2023-05-10T11:46:07.451Z,97588.69
2023-05-10T11:49:10.777Z,97587.66
2023-05-10T11:52:13.989Z,97591.06
2023-05-10T11:55:18.542Z,97592.50
2023-05-10T11:58:22.335Z,97589.06
2023-05-10T12:01:26.792Z,97593.56
2023-05-10T12:04:30.375Z,97599.44
2023-05-10T12:07:33.908Z,97594.25
2023-05-10T12:10:38.786Z,97598.91
2023-05-10T12:13:43.677Z,97599.03
2023-05-10T12:16:46.970Z,97592.38
2023-05-10T12:19:50.152Z,97595.94
2023-05-10T12:22:55.353Z,97586.03
2023-05-10T12:26:05.530Z,97586.72
2023-05-10T12:29:16.648Z,97576.75
2023-05-10T12:32:19.862Z,97591.25
2023-05-10T12:35:24.883Z,97585.31
2023-05-10T12:38:30.550Z,97591.25
2023-05-10T12:41:35.223Z,97592.84
2023-05-10T12:44:38.535Z,97589.31
2023-05-10T12:47:44.017Z,97594.13
2023-05-10T12:50:47.640Z,97598.03
2023-05-10T12:53:50.868Z,97591.72
2023-05-10T12:56:55.411Z,97576.75
2023-05-10T12:59:58.651Z,97588.28
2023-05-10T13:03:02.045Z,97589.38
2023-05-10T13:06:05.607Z,97591.41
2023-05-10T13:09:09.557Z,97593.63
2023-05-10T13:12:14.270Z,97589.84
2023-05-10T13:15:17.420Z,97588.38
2023-05-10T13:18:20.649Z,97591.16
2023-05-10T13:21:25.450Z,97586.94
2023-05-10T13:24:28.730Z,97585.53
2023-05-10T13:27:33.433Z,97589.78
2023-05-10T13:30:36.766Z,97584.28
2023-05-10T13:33:39.891Z,97590.81
2023-05-10T13:36:43.177Z,97592.28
2023-05-10T13:39:46.653Z,97594.63
2023-05-10T13:42:51.248Z,97592.13
2023-05-10T13:45:54.446Z,97586.63
2023-05-10T13:48:57.862Z,97585.13
2023-05-10T13:52:04.455Z,97581.66
2023-05-10T13:55:08.206Z,97585.72
2023-05-10T13:58:12.792Z,97580.78
2023-05-10T14:01:16.109Z,97578.50
2023-05-10T14:04:19.561Z,97583.00
2023-05-10T14:07:22.716Z,97584.09
2023-05-10T14:10:25.896Z,97579.31
2023-05-10T14:13:30.866Z,97575.75
2023-05-10T14:16:34.041Z,97579.06
2023-05-10T14:19:40.245Z,97582.38
2023-05-10T14:22:43.517Z,97582.50
2023-05-10T14:25:46.661Z,97583.44
2023-05-10T14:28:51.200Z,97580.25
2023-05-10T14:31:54.538Z,97579.00
2023-05-10T14:34:57.664Z,97582.22
2023-05-10T14:38:00.780Z,97582.78
2023-05-10T14:41:04.198Z,97581.88
2023-05-10T14:44:11.181Z,97575.63
2023-05-10T14:47:14.569Z,97583.03
2023-05-10T14:50:34.693Z,97578.84
2023-05-10T14:53:39.464Z,97586.22
2023-05-10T14:56:43.346Z,97573.75
2023-05-10T14:59:48.284Z,97565.41
2023-05-10T15:02:51.876Z,97589.22
2023-05-10T15:05:56.968Z,97592.06
2023-05-10T15:09:00.046Z,97601.47
2023-05-10T15:12:03.254Z,97608.13
2023-05-10T15:15:09.510Z,97613.34
2023-05-10T15:18:12.725Z,97612.31
2023-05-10T15:21:15.993Z,97634.03
2023-05-10T15:24:19.145Z,97621.13
2023-05-10T15:27:22.265Z,97632.72
2023-05-10T15:30:26.723Z,97635.69
2023-05-10T15:34:41.927Z,97635.91
2023-05-10T15:37:45.043Z,97640.41
2023-05-10T15:40:48.277Z,97633.41
2023-05-10T15:43:51.426Z,97635.97
2023-05-10T15:46:54.599Z,97640.78
2023-05-10T15:49:59.151Z,97645.22
2023-05-10T15:53:02.309Z,97638.53
2023-05-10T15:56:06.086Z,97655.56
2023-05-10T15:59:11.727Z,97653.63
2023-05-10T16:02:15.864Z,97643.47
2023-05-10T16:05:20.588Z,97649.41
2023-05-10T16:08:23.887Z,97647.75
2023-05-10T16:11:27.137Z,97656.19
2023-05-10T16:14:30.425Z,97661.06
2023-05-10T16:17:33.803Z,97658.31
2023-05-10T16:20:38.402Z,97652.53
2023-05-10T16:23:41.693Z,97663.19
2023-05-10T16:26:44.925Z,97656.06
2023-05-10T16:29:49.122Z,97661.00
2023-05-10T16:32:52.377Z,97665.06
2023-05-10T16:35:56.889Z,97669.88
2023-05-10T16:39:00.045Z,97682.94
2023-05-10T16:42:03.199Z,97683.22
2023-05-10T16:45:09.013Z,97677.31
2023-05-10T16:48:12.144Z,97685.13
2023-05-10T16:51:16.575Z,97685.25
2023-05-10T16:54:20.721Z,97679.28
2023-05-10T16:57:24.123Z,97660.94
2023-05-10T17:00:27.362Z,97690.66
2023-05-10T17:03:30.470Z,97693.00
2023-05-10T17:06:36.828Z,97687.66
2023-05-10T17:09:41.560Z,97701.19
2023-05-10T17:12:44.797Z,97701.13
2023-05-10T17:15:48.689Z,97703.91
2023-05-10T17:18:51.973Z,97696.41
2023-05-10T17:21:56.701Z,97705.28
2023-05-10T17:24:59.867Z,97708.00
2023-05-10T17:28:03.360Z,97714.88
2023-05-10T17:31:06.537Z,97723.75
2023-05-10T17:34:10.064Z,97715.41
2023-05-10T17:37:14.697Z,97721.22
2023-05-10T17:40:18.188Z,97725.41
2023-05-10T17:43:21.354Z,97724.97
2023-05-10T17:46:24.612Z,97733.00
2023-05-10T17:49:28.731Z,97731.47
2023-05-10T17:52:33.768Z,97733.50
2023-05-10T17:55:37.016Z,97741.88
2023-05-10T17:58:40.258Z,97734.34
2023-05-10T18:01:43.515Z,97747.03
2023-05-10T18:04:48.568Z,97746.19
2023-05-10T18:07:53.353Z,97750.69
2023-05-10T18:10:56.613Z,97761.44
2023-05-10T18:13:59.684Z,97751.63
2023-05-10T18:17:02.876Z,97757.81
2023-05-10T18:20:18.123Z,97768.44
2023-05-10T18:23:22.649Z,97778.03
2023-05-10T18:26:26.072Z,97775.09
2023-05-10T18:29:29.238Z,97779.56
2023-05-10T18:32:32.408Z,97787.25
2023-05-10T18:35:35.978Z,97788.78
2023-05-10T18:38:41.169Z,97787.59
2023-05-10T18:41:44.695Z,97795.09
2023-05-10T18:44:47.789Z,97800.50
2023-05-10T18:47:51.015Z,97804.06
2023-05-10T18:50:54.423Z,97805.91
2023-05-10T18:53:59.159Z,97809.06
2023-05-10T18:57:02.273Z,97813.06
2023-05-10T19:00:07.079Z,97810.19
2023-05-10T19:03:10.610Z,97819.75
2023-05-10T19:06:13.978Z,97829.69
2023-05-10T19:09:20.100Z,97825.25
2023-05-10T19:12:23.413Z,97829.88
2023-05-10T19:15:26.854Z,97835.81
2023-05-10T19:18:33.141Z,97837.19
2023-05-10T19:21:37.129Z,97835.72
2023-05-10T19:24:41.734Z,97837.19
2023-05-10T19:27:44.962Z,97843.22
2023-05-10T19:30:49.616Z,97855.50
2023-05-10T19:33:52.909Z,97849.06
2023-05-10T19:36:56.996Z,97852.78
2023-05-10T19:40:01.596Z,97857.59
2023-05-10T19:43:04.918Z,97860.94
2023-05-10T19:46:09.542Z,97853.63
2023-05-10T19:49:12.701Z,97856.94
2023-05-10T19:52:16.059Z,97857.28
2023-05-10T19:55:29.054Z,97857.09
2023-05-10T19:58:32.314Z,97855.59
2023-05-10T20:01:35.654Z,97855.31
2023-05-10T20:04:38.836Z,97859.69
2023-05-10T20:07:42.039Z,97857.38
2023-05-10T20:10:46.836Z,97855.19
2023-05-10T20:13:50.011Z,97859.13
2023-05-10T20:16:53.374Z,97857.97
2023-05-10T20:19:56.909Z,97867.28
2023-05-10T20:23:00.359Z,97859.47
2023-05-10T20:26:04.930Z,97859.56
2023-05-10T20:29:11.360Z,97838.06
2023-05-10T20:32:14.482Z,97861.03
2023-05-10T20:35:17.863Z,97866.63
2023-05-10T20:38:21.319Z,97855.47
2023-05-10T20:41:25.880Z,97850.63
2023-05-10T20:44:29.060Z,97861.91
2023-05-10T20:47:32.427Z,97856.22
2023-05-10T20:50:35.820Z,97868.13
2023-05-10T20:53:38.927Z,97864.69
2023-05-10T20:56:43.387Z,97860.28
2023-05-10T20:59:46.472Z,97859.91
2023-05-10T21:02:49.769Z,97860.44
2023-05-10T21:05:53.028Z,97851.13
2023-05-10T21:08:56.270Z,97844.31
2023-05-10T21:12:03.138Z,97855.59
2023-05-10T21:15:07.095Z,97851.59
2023-05-10T21:18:10.603Z,97843.81
2023-05-10T21:21:13.753Z,97844.81
2023-05-10T21:24:16.989Z,97856.34
2023-05-10T21:27:22.017Z,97848.03
2023-05-10T21:30:25.386Z,97847.84
2023-05-10T21:34:41.739Z,97837.31
2023-05-10T21:37:44.856Z,97842.16
2023-05-10T21:40:47.997Z,97840.31
2023-05-10T21:43:51.154Z,97842.47
2023-05-10T21:46:54.456Z,97845.13
2023-05-10T21:49:59.926Z,97847.44
2023-05-10T21:53:03.628Z,97842.09
2023-05-10T21:56:07.233Z,97838.50
2023-05-10T21:59:12.541Z,97842.13
2023-05-10T22:02:15.799Z,97837.88
2023-05-10T22:05:21.102Z,97832.13
2023-05-10T22:08:24.399Z,97828.56
2023-05-10T22:11:27.560Z,97823.75
2023-05-10T22:14:31.069Z,97820.91
2023-05-10T22:17:34.331Z,97827.78
2023-05-10T22:20:39.454Z,97834.63
2023-05-10T22:23:42.675Z,97839.69
2023-05-10T22:26:46.072Z,97813.56
2023-05-10T22:29:49.154Z,97840.50
2023-05-10T22:32:52.356Z,97839.19
2023-05-10T22:35:56.982Z,97836.22
2023-05-10T22:39:00.433Z,97842.00
2023-05-10T22:42:03.589Z,97844.38
2023-05-10T22:45:08.048Z,97832.28
2023-05-10T22:48:30.042Z,97830.28
2023-05-10T22:51:35.317Z,97833.13
2023-05-10T22:54:38.385Z,97845.44
2023-05-10T22:57:41.620Z,97841.88
2023-05-10T23:00:44.908Z,97834.09
2023-05-10T23:03:48.142Z,97843.03
2023-05-10T23:06:53.573Z,97845.22
2023-05-10T23:09:56.791Z,97850.22
2023-05-10T23:12:59.895Z,97827.63
2023-05-10T23:16:06.306Z,97850.22
2023-05-10T23:19:09.395Z,97852.56
2023-05-10T23:22:13.858Z,97847.22
2023-05-10T23:25:17.152Z,97858.53
2023-05-10T23:28:20.445Z,97856.28
2023-05-10T23:31:23.585Z,97864.22
2023-05-10T23:34:26.716Z,97860.69
2023-05-10T23:37:31.244Z,97852.00
2023-05-10T23:40:36.562Z,97858.69
2023-05-10T23:43:39.983Z,97860.78
2023-05-10T23:46:43.208Z,97856.75
2023-05-10T23:49:46.277Z,97859.44
2023-05-10T23:52:50.854Z,97851.38
2023-05-10T23:55:53.975Z,97849.72
2023-05-10T23:58:57.303Z,97846.09
